Time;durP1;ratioP1;P1;durP2;ratioP2;P2;SDS_P1;SDS_P2;PMS_P1;PMS_P2;Temp;Humidity;BMP_temperature;BMP_pressure;BME280_temperature;BME280_humidity;BME280_pressure;Samples;Min_cycle;Max_cycle;Signal;HPM_P1;HPM_P2
2022/01/12 00:01:59;;;;;;;17.12;5.87;;;;;;;-5.31;100.00;101706.18;1590857;90;21069;-90
2022/01/12 00:04:25;;;;;;;14.70;5.28;;;;;;;-5.36;100.00;101697.02;1590714;89;21144;-90
2022/01/12 00:06:51;;;;;;;14.40;5.55;;;;;;;-5.41;100.00;101701.36;1591155;90;20899;-90
2022/01/12 00:09:17;;;;;;;11.48;4.87;;;;;;;-5.43;100.00;101699.82;1590551;90;21987;-90
2022/01/12 00:11:43;;;;;;;18.73;6.40;;;;;;;-5.44;100.00;101700.30;1590266;90;20938;-91
2022/01/12 00:14:08;;;;;;;14.13;5.22;;;;;;;-5.45;100.00;101698.62;1590561;90;20970;-89
2022/01/12 00:16:35;;;;;;;12.75;4.90;;;;;;;-5.44;100.00;101699.45;1590672;90;21412;-90
2022/01/12 00:19:01;;;;;;;10.85;4.53;;;;;;;-5.50;100.00;101696.39;1587155;90;21165;-89
2022/01/12 00:21:27;;;;;;;12.45;4.65;;;;;;;-5.54;100.00;101701.53;1590668;90;21137;-90
2022/01/12 00:23:53;;;;;;;15.95;4.70;;;;;;;-5.57;100.00;101698.33;1591324;90;21030;-91
2022/01/12 00:34:29;;;;;;;10.38;4.45;;;;;;;-5.71;100.00;101699.46;1642172;86;21221;-90
2022/01/12 00:36:55;;;;;;;11.55;4.58;;;;;;;-5.69;100.00;101701.97;1649357;87;21113;-87
2022/01/12 00:39:21;;;;;;;13.22;4.90;;;;;;;-5.68;100.00;101693.95;1682447;84;21090;-90
2022/01/12 00:41:47;;;;;;;11.33;5.08;;;;;;;-5.67;100.00;101693.02;1703623;84;21683;-89
2022/01/12 00:44:23;;;;;;;13.20;5.58;;;;;;;-5.63;100.00;101694.91;1703659;84;21061;-90
2022/01/12 00:46:42;;;;;;;14.68;5.67;;;;;;;-5.66;100.00;101693.84;1699272;83;21507;-89
2022/01/12 00:49:08;;;;;;;15.68;6.33;;;;;;;-5.64;100.00;101698.02;1703365;84;26995;-91
2022/01/12 00:51:36;;;;;;;15.90;6.60;;;;;;;-5.61;100.00;101699.07;1703792;84;21072;-90
2022/01/12 00:54:02;;;;;;;14.00;5.08;;;;;;;-5.59;100.00;101702.41;1703477;84;21038;-91
2022/01/12 00:56:28;;;;;;;15.13;6.05;;;;;;;-5.57;100.00;101699.16;1703398;84;21158;-92
2022/01/12 00:58:55;;;;;;;11.30;5.08;;;;;;;-5.56;100.00;101698.22;1713732;82;21083;-90
2022/01/12 01:01:22;;;;;;;15.15;4.97;;;;;;;-5.55;100.00;101705.13;1719713;83;21150;-89
2022/01/12 01:03:49;;;;;;;15.55;6.12;;;;;;;-5.57;100.00;101700.47;1719865;82;21077;-91
2022/01/12 01:06:15;;;;;;;12.98;5.35;;;;;;;-5.57;100.00;101703.09;1720019;82;21034;-90
2022/01/12 01:08:42;;;;;;;17.73;6.37;;;;;;;-5.59;100.00;101704.17;1720108;83;21644;-90
2022/01/12 01:11:08;;;;;;;19.12;6.35;;;;;;;-5.61;100.00;101696.45;1719806;83;22002;-90
2022/01/12 01:13:41;;;;;;;14.83;5.62;;;;;;;-5.60;100.00;101697.27;1720130;82;27095;-90
2022/01/12 01:16:16;;;;;;;13.65;5.03;;;;;;;-5.66;100.00;101705.66;1715755;83;21681;-93
2022/01/12 01:26:49;;;;;;;14.75;5.17;;;;;;;-5.70;100.00;101718.21;1719775;83;21685;-92
2022/01/12 01:29:16;;;;;;;18.60;6.28;;;;;;;-5.70;100.00;101715.58;1720759;83;21073;-91
2022/01/12 01:31:44;;;;;;;17.23;6.47;;;;;;;-5.73;100.00;101713.21;1720567;82;21062;-91
2022/01/12 01:34:13;;;;;;;21.05;7.20;;;;;;;-5.72;100.00;101720.12;1717593;82;21035;-90
2022/01/12 01:36:44;;;;;;;14.78;5.72;;;;;;;-5.74;100.00;101711.52;1684509;84;21254;-90
2022/01/12 01:39:15;;;;;;;17.55;5.25;;;;;;;-5.74;100.00;101712.35;1706448;84;21086;-92
2022/01/12 01:41:47;;;;;;;17.75;6.40;;;;;;;-5.73;100.00;101725.02;1706802;84;20983;-91
2022/01/12 01:54:49;;;;;;;13.75;5.75;;;;;;;-5.71;100.00;101729.20;1672138;84;21090;-93
2022/01/12 01:57:16;;;;;;;14.98;5.75;;;;;;;-5.74;100.00;101726.79;1690919;84;21465;-91
2022/01/12 01:59:42;;;;;;;15.10;5.75;;;;;;;-5.72;100.00;101734.07;1693020;84;21165;-90
2022/01/12 02:02:08;;;;;;;16.90;6.55;;;;;;;-5.74;100.00;101732.04;1691562;84;21399;-92
2022/01/12 02:04:34;;;;;;;16.75;6.83;;;;;;;-5.76;100.00;101732.67;1691840;84;21078;-91
2022/01/12 02:07:00;;;;;;;14.53;5.87;;;;;;;-5.76;100.00;101733.16;1692081;84;20994;-91
2022/01/12 02:09:26;;;;;;;17.80;5.60;;;;;;;-5.75;100.00;101730.88;1668323;84;20939;-92
2022/01/12 02:11:53;;;;;;;16.10;6.53;;;;;;;-5.78;100.00;101739.83;1690622;84;20999;-91
2022/01/12 02:14:20;;;;;;;21.50;6.85;;;;;;;-5.78;100.00;101746.88;1691558;84;21147;-92
2022/01/12 02:16:58;;;;;;;15.72;5.70;;;;;;;-5.82;100.00;101753.34;1691624;84;21109;-92
2022/01/12 02:41:20;;;;;;;19.32;7.33;;;;;;;-6.14;100.00;101772.52;1631039;86;21717;-91
2022/01/12 02:54:53;;;;;;;21.68;7.60;;;;;;;-6.30;100.00;101787.78;1612153;86;20926;-92
2022/01/12 02:57:20;;;;;;;18.70;8.23;;;;;;;-6.35;100.00;101779.44;1589324;88;20991;-91
2022/01/12 03:00:02;;;;;;;24.35;8.28;;;;;;;-6.34;100.00;101782.44;1589714;88;21050;-91
2022/01/12 03:02:34;;;;;;;19.20;7.53;;;;;;;-6.31;100.00;101783.02;1567466;88;21147;-90
2022/01/12 03:07:31;;;;;;;20.12;8.15;;;;;;;-6.30;100.00;101779.92;1589574;88;21129;-91
2022/01/12 03:09:55;;;;;;;20.82;7.90;;;;;;;-6.27;100.00;101777.88;1572443;88;21181;-90
2022/01/12 03:12:21;;;;;;;20.08;8.85;;;;;;;-6.28;100.00;101780.64;1589942;88;26688;-91
2022/01/12 03:14:47;;;;;;;24.47;9.53;;;;;;;-6.24;100.00;101775.50;1589556;88;20940;-90
2022/01/12 03:17:15;;;;;;;19.40;8.18;;;;;;;-6.19;100.00;101774.66;1567341;91;20963;-91
2022/01/12 03:19:42;;;;;;;20.60;7.95;;;;;;;-6.19;100.00;101783.84;1567308;91;21408;-91
2022/01/12 03:22:07;;;;;;;23.77;8.30;;;;;;;-6.23;100.00;101783.26;1567465;91;21652;-90
2022/01/12 03:24:33;;;;;;;23.25;8.30;;;;;;;-6.24;100.00;101780.74;1567400;91;26809;-91
2022/01/12 03:27:03;;;;;;;18.87;7.25;;;;;;;-6.25;100.00;101785.64;1567671;91;20903;-91
2022/01/12 03:29:29;;;;;;;20.48;7.87;;;;;;;-6.29;100.00;101785.54;1567077;91;21617;-92
2022/01/12 03:31:57;;;;;;;21.68;7.97;;;;;;;-6.36;100.00;101788.27;1566476;90;21157;-91
2022/01/12 03:34:27;;;;;;;21.10;8.20;;;;;;;-6.48;100.00;101786.95;1574985;87;21060;-92
2022/01/12 04:09:00;;;;;;;23.98;8.40;;;;;;;-7.24;100.00;101771.84;1713061;83;21070;-92
2022/01/12 04:11:26;;;;;;;19.85;7.20;;;;;;;-7.27;100.00;101775.99;1713421;83;27051;-92
2022/01/12 04:13:53;;;;;;;19.57;8.38;;;;;;;-7.29;100.00;101776.13;1714230;83;20851;-93
2022/01/12 04:16:19;;;;;;;23.80;8.68;;;;;;;-7.31;100.00;101776.70;1713777;83;21349;-93
2022/01/12 04:18:45;;;;;;;19.55;8.18;;;;;;;-7.31;100.00;101780.16;1713588;83;21648;-92
2022/01/12 04:21:13;;;;;;;20.70;8.10;;;;;;;-7.33;100.00;101779.90;1713796;83;26911;-93
2022/01/12 04:23:41;;;;;;;23.42;8.75;;;;;;;-7.32;100.00;101779.80;1692901;83;22123;-93
2022/01/12 04:26:12;;;;;;;19.85;8.35;;;;;;;-7.32;100.00;101778.48;1713412;83;21046;-92
2022/01/12 04:28:42;;;;;;;21.57;8.33;;;;;;;-7.31;100.00;101784.56;1713400;83;20943;-92
2022/01/12 04:31:08;;;;;;;19.32;7.85;;;;;;;-7.32;100.00;101788.13;1660631;86;21750;-92
2022/01/12 04:33:36;;;;;;;19.87;8.60;;;;;;;-7.32;100.00;101786.83;1660544;86;21595;-92
2022/01/12 04:36:05;;;;;;;26.12;8.18;;;;;;;-7.44;100.00;101775.92;1657297;85;21091;-92
2022/01/12 04:38:34;;;;;;;20.17;8.35;;;;;;;-7.39;100.00;101800.82;1633680;86;21533;-94
2022/01/12 04:41:06;;;;;;;19.23;8.50;;;;;;;-7.42;100.00;101793.67;1655317;86;21138;-94
2022/01/12 04:43:34;;;;;;;17.25;7.50;;;;;;;-7.44;100.00;101792.94;1656107;86;21089;-93
2022/01/12 04:48:37;;;;;;;20.62;8.45;;;;;;;-7.49;100.00;101801.62;1655898;86;21193;-93
2022/01/12 04:51:01;;;;;;;19.02;8.80;;;;;;;-7.50;100.00;101793.39;1655555;85;21768;-93
2022/01/12 04:53:29;;;;;;;20.27;8.28;;;;;;;-7.54;100.00;101794.93;1655429;86;21061;-94
2022/01/12 04:55:55;;;;;;;26.02;9.55;;;;;;;-7.71;100.00;101774.87;1655495;85;21095;-93
2022/01/12 04:58:21;;;;;;;19.17;8.55;;;;;;;-7.56;100.00;101799.91;1655607;85;21164;-93
2022/01/12 05:00:51;;;;;;;19.55;8.10;;;;;;;-7.58;100.00;101802.66;1655771;85;26661;-93
2022/01/12 05:08:53;;;;;;;21.45;8.68;;;;;;;-7.64;100.00;101812.27;1655655;84;21054;-93
2022/01/12 05:14:01;;;;;;;17.30;7.37;;;;;;;-7.67;100.00;101810.35;1657224;86;21046;-94
2022/01/12 05:16:27;;;;;;;27.35;8.48;;;;;;;-7.68;100.00;101815.20;1653954;84;21186;-93
2022/01/12 05:18:56;;;;;;;20.52;9.10;;;;;;;-7.68;100.00;101815.20;1644770;85;21030;-92
2022/01/12 05:21:24;;;;;;;18.90;8.05;;;;;;;-7.69;100.00;101812.23;1630747;86;21137;-94
2022/01/12 05:23:51;;;;;;;19.92;9.00;;;;;;;-7.68;100.00;101818.65;1631423;88;21042;-93
2022/01/12 05:26:17;;;;;;;19.45;8.15;;;;;;;-7.68;100.00;101819.13;1642312;86;21089;-93
2022/01/12 05:28:43;;;;;;;24.32;9.00;;;;;;;-7.66;100.00;101817.24;1701823;83;21570;-94
2022/01/12 05:33:46;;;;;;;20.20;8.65;;;;;;;-7.66;100.00;101810.22;1700518;83;21055;-93
2022/01/12 05:36:07;;;;;;;22.45;8.20;;;;;;;-7.66;100.00;101823.30;1698927;82;21581;-94
2022/01/12 05:38:34;;;;;;;21.45;8.18;;;;;;;-7.66;100.00;101820.69;1688144;83;26562;-94
2022/01/12 05:41:04;;;;;;;17.95;7.60;;;;;;;-7.64;100.00;101825.83;1679290;84;21595;-94
2022/01/12 05:43:31;;;;;;;18.95;7.55;;;;;;;-7.63;100.00;101824.87;1687121;83;21102;-95
2022/01/12 05:46:09;;;;;;;19.48;7.45;;;;;;;-7.61;100.00;101826.44;1679346;85;21493;-96
2022/01/12 05:51:17;;;;;;;23.20;9.05;;;;;;;-7.56;100.00;101811.24;1678932;85;21012;-95
2022/01/12 05:53:43;;;;;;;21.05;8.50;;;;;;;-7.42;100.00;101823.78;1696944;83;20904;-95
2022/01/12 05:56:09;;;;;;;25.25;9.45;;;;;;;-7.32;100.00;101819.08;1698804;83;20905;-96
2022/01/12 05:58:35;;;;;;;21.23;8.45;;;;;;;-7.11;100.00;101823.19;1693958;83;21678;-95
2022/01/12 06:01:01;;;;;;;23.55;9.00;;;;;;;-6.68;100.00;101823.87;1700766;83;27077;-95
2022/01/12 06:03:27;;;;;;;23.90;8.28;;;;;;;-6.35;100.00;101829.26;1680890;84;26465;-95
2022/01/12 06:05:53;;;;;;;21.52;8.30;;;;;;;-6.11;100.00;101833.92;1708486;84;21536;-95
2022/01/12 06:08:19;;;;;;;16.62;7.45;;;;;;;-5.84;100.00;101827.42;1708561;83;20917;-95
2022/01/12 06:10:45;;;;;;;22.48;7.72;;;;;;;-5.29;100.00;101825.59;1704343;84;21089;-95
2022/01/12 06:13:11;;;;;;;20.30;7.05;;;;;;;-4.57;100.00;101820.39;1708391;84;20854;-95
2022/01/12 06:15:37;;;;;;;19.45;6.97;;;;;;;-4.19;100.00;101823.34;1680808;84;20972;-93
2022/01/12 06:18:04;;;;;;;16.07;6.12;;;;;;;-3.71;100.00;101823.45;1707974;84;21624;-94
2022/01/12 06:20:33;;;;;;;17.92;6.60;;;;;;;-3.67;100.00;101824.87;1708014;82;21027;-94
2022/01/12 06:22:58;;;;;;;23.38;7.40;;;;;;;-4.16;100.00;101827.84;1707421;83;21028;-93
2022/01/12 06:25:24;;;;;;;19.42;7.30;;;;;;;-4.46;100.00;101831.81;1708031;84;21076;-93
2022/01/12 06:27:54;;;;;;;19.87;7.53;;;;;;;-4.78;100.00;101826.64;1707852;84;21008;-94
2022/01/12 06:32:58;;;;;;;21.15;7.10;;;;;;;-5.07;100.00;101821.53;1707468;84;21067;-95
2022/01/12 06:35:25;;;;;;;16.77;6.53;;;;;;;-5.29;100.00;101830.36;1709389;83;21302;-91
2022/01/12 06:37:53;;;;;;;25.62;7.37;;;;;;;-5.37;100.00;101828.84;1700656;83;21003;-95
2022/01/12 06:40:24;;;;;;;24.50;7.80;;;;;;;-5.44;100.00;101839.50;1721848;81;21299;-94
2022/01/12 06:42:49;;;;;;;19.90;7.47;;;;;;;-5.50;100.00;101843.91;1654675;84;21089;-95
2022/01/12 06:45:19;;;;;;;21.45;7.17;;;;;;;-5.54;100.00;101839.87;1673679;85;21034;-94
2022/01/12 06:47:46;;;;;;;17.52;6.65;;;;;;;-5.56;100.00;101847.03;1673614;85;21872;-92
2022/01/12 06:50:14;;;;;;;24.72;7.92;;;;;;;-5.64;100.00;101841.58;1651005;84;21087;-95
2022/01/12 06:52:43;;;;;;;18.10;6.80;;;;;;;-5.66;100.00;101847.42;1590154;89;21143;-94
2022/01/12 06:55:09;;;;;;;19.10;6.50;;;;;;;-5.62;100.00;101847.52;1594427;89;21360;-93
2022/01/12 06:57:36;;;;;;;19.82;6.92;;;;;;;-5.69;100.00;101851.13;1596944;89;21097;-95
2022/01/12 07:00:04;;;;;;;19.70;6.28;;;;;;;-5.75;100.00;101854.24;1590341;89;21142;-95
2022/01/12 07:02:30;;;;;;;15.10;5.92;;;;;;;-5.76;100.00;101852.10;1588530;90;21003;-95
2022/01/12 07:04:56;;;;;;;15.32;6.33;;;;;;;-5.77;100.00;101856.14;1588583;90;21085;-95
2022/01/12 07:07:23;;;;;;;18.15;6.47;;;;;;;-5.25;100.00;101851.95;1588781;90;21567;-95
2022/01/12 07:09:53;;;;;;;18.57;5.95;;;;;;;-3.48;100.00;101850.39;1591979;89;21171;-94
2022/01/12 07:12:19;;;;;;;13.43;5.65;;;;;;;-2.02;100.00;101850.67;1600652;89;21217;-94
2022/01/12 07:14:47;;;;;;;14.40;6.15;;;;;;;-0.63;100.00;101855.98;1600539;89;20913;-93
2022/01/12 07:17:14;;;;;;;15.85;5.78;;;;;;;0.17;100.00;101848.11;1622614;88;21039;-92
2022/01/12 07:19:40;;;;;;;13.15;5.62;;;;;;;0.56;98.27;101854.69;1622158;88;21210;-94
2022/01/12 07:22:06;;;;;;;10.68;5.15;;;;;;;1.16;93.01;101853.09;1622671;88;21086;-94
2022/01/12 07:24:39;;;;;;;13.05;6.10;;;;;;;2.08;89.92;101846.91;1622309;88;21582;-92
2022/01/12 07:27:05;;;;;;;13.48;6.42;;;;;;;2.48;79.75;101847.72;1622013;88;20995;-93
2022/01/12 07:29:31;;;;;;;13.08;5.92;;;;;;;2.54;63.42;101847.02;1622413;88;21074;-93
2022/01/12 07:31:57;;;;;;;11.80;6.17;;;;;;;3.01;63.25;101847.34;1622443;88;21146;-93
2022/01/12 07:34:23;;;;;;;11.95;5.72;;;;;;;3.06;64.73;101838.80;1608584;89;20881;-93
2022/01/12 07:36:49;;;;;;;10.08;5.53;;;;;;;3.82;65.37;101846.22;1604632;89;20975;-92
2022/01/12 07:39:15;;;;;;;10.25;5.17;;;;;;;4.78;64.41;101838.95;1582287;89;21211;-91
2022/01/12 07:41:41;;;;;;;9.73;5.42;;;;;;;5.53;60.76;101841.54;1620513;88;21033;-90
2022/01/12 07:44:07;;;;;;;11.55;5.55;;;;;;;5.95;55.88;101842.95;1601046;89;21109;-92
2022/01/12 07:46:33;;;;;;;17.48;6.85;;;;;;;5.58;49.17;101846.28;1579384;89;20900;-91
2022/01/12 07:49:00;;;;;;;13.65;5.62;;;;;;;4.14;49.42;101850.34;1600496;89;21160;-91
2022/01/12 07:51:31;;;;;;;10.20;4.45;;;;;;;3.16;48.41;101846.06;1559029;92;21055;-92
2022/01/12 07:53:57;;;;;;;12.20;5.40;;;;;;;2.69;50.83;101859.88;1559105;92;21046;-92
2022/01/12 07:56:23;;;;;;;10.70;5.25;;;;;;;3.68;48.78;101834.56;1571699;90;20991;-92
2022/01/12 07:58:49;;;;;;;12.58;5.42;;;;;;;4.67;46.11;101850.13;1578972;90;21146;-91
2022/01/12 08:01:15;;;;;;;11.90;4.97;;;;;;;4.66;45.45;101863.17;1579073;90;21114;-93
2022/01/12 08:03:41;;;;;;;8.58;4.80;;;;;;;4.94;46.79;101866.75;1578923;90;20935;-92
2022/01/12 08:06:07;;;;;;;11.00;4.85;;;;;;;3.52;43.72;101876.86;1614872;88;20923;-91
2022/01/12 08:08:33;;;;;;;11.40;4.70;;;;;;;1.83;44.41;101863.96;1626786;88;20899;-92
2022/01/12 08:10:59;;;;;;;11.15;5.08;;;;;;;0.47;44.72;101860.97;1626633;88;21597;-92
2022/01/12 08:13:25;;;;;;;10.18;5.40;;;;;;;1.09;47.72;101858.25;1632020;86;21171;-91
2022/01/12 08:15:54;;;;;;;11.43;5.40;;;;;;;2.64;46.79;101856.09;1663596;85;20919;-91
2022/01/12 08:18:20;;;;;;;11.60;5.62;;;;;;;4.75;44.99;101857.52;1660384;85;21077;-89
2022/01/12 08:20:46;;;;;;;13.38;6.17;;;;;;;4.75;44.99;101857.52;1678486;84;21082;-92
2022/01/12 08:23:27;;;;;;;;;;;;;;;;;;;;;
2022/01/12 08:28:14;;;;;;;10.20;5.85;;;;;;;5.99;39.10;101851.70;1582434;90;21094;-93
2022/01/12 08:30:40;;;;;;;8.30;5.30;;;;;;;5.78;40.90;101845.08;1582483;90;21090;-92
2022/01/12 08:33:07;;;;;;;10.68;5.65;;;;;;;5.86;37.62;101844.41;1582679;90;21221;-93
2022/01/12 08:35:34;;;;;;;10.55;6.05;;;;;;;5.42;39.02;101840.22;1582378;90;21114;-94
2022/01/12 08:38:00;;;;;;;12.23;5.67;;;;;;;3.83;38.60;101850.05;1579892;89;21145;-93
2022/01/12 08:40:27;;;;;;;12.25;5.80;;;;;;;1.66;39.68;101840.58;1580383;89;21567;-92
2022/01/12 08:42:53;;;;;;;15.95;6.10;;;;;;;0.04;41.55;101842.45;1580813;89;21095;-94
2022/01/12 08:45:19;;;;;;;11.85;5.67;;;;;;;-1.28;43.91;101856.27;1580452;90;21102;-93
2022/01/12 08:47:46;;;;;;;14.47;5.58;;;;;;;-1.93;44.99;101848.47;1580676;90;21079;-94
2022/01/12 08:50:14;;;;;;;14.25;5.45;;;;;;;-2.70;46.69;101842.97;1580937;90;21107;-92
2022/01/12 08:52:47;;;;;;;13.90;5.28;;;;;;;-3.35;48.95;101835.66;1580657;89;21174;-93
2022/01/12 08:55:17;;;;;;;14.87;5.78;;;;;;;-3.34;50.94;101828.58;1581176;90;21299;-94
2022/01/12 08:57:43;;;;;;;11.08;4.60;;;;;;;-3.45;50.98;101834.80;1580522;90;21540;-93
2022/01/12 09:00:11;;;;;;;13.90;5.40;;;;;;;-3.42;52.10;101827.94;1580797;90;21067;-93
2022/01/12 09:02:38;;;;;;;13.30;4.85;;;;;;;-3.44;51.92;101826.77;1580851;89;21206;-93
2022/01/12 09:05:06;;;;;;;18.27;6.30;;;;;;;-3.57;52.16;101828.00;1580740;89;21051;-93
2022/01/12 09:07:35;;;;;;;18.55;6.40;;;;;;;-3.67;52.51;101829.31;1550750;92;21189;-93
2022/01/12 09:10:01;;;;;;;12.98;5.55;;;;;;;-3.81;53.25;101827.88;1549960;92;21146;-94
2022/01/12 09:12:27;;;;;;;17.98;6.17;;;;;;;-3.96;52.91;101842.41;1550722;92;21081;-93
2022/01/12 09:14:54;;;;;;;19.50;6.80;;;;;;;-4.02;54.35;101831.92;1550552;92;21719;-95
2022/01/12 09:17:22;;;;;;;15.80;5.87;;;;;;;-4.08;55.29;101835.58;1550236;92;21101;-93
2022/01/12 09:19:51;;;;;;;12.37;5.15;;;;;;;-3.96;56.63;101831.87;1550033;92;21120;-93
2022/01/12 09:22:17;;;;;;;17.25;6.25;;;;;;;-3.94;56.60;101827.28;1513624;94;21491;-94
2022/01/12 09:24:44;;;;;;;14.63;5.45;;;;;;;-4.02;56.15;101831.92;1529389;92;21097;-95
2022/01/12 09:27:11;;;;;;;14.47;5.33;;;;;;;-4.04;57.99;101831.21;1532157;93;21619;-94
2022/01/12 09:29:37;;;;;;;11.15;4.95;;;;;;;-3.91;59.47;101823.09;1535842;93;21112;-94
2022/01/12 09:32:04;;;;;;;14.35;5.67;;;;;;;-3.72;59.29;101822.29;1538582;93;21102;-94
2022/01/12 09:34:31;;;;;;;15.83;5.33;;;;;;;-3.80;58.45;101821.64;1539538;93;21157;-94
2022/01/12 09:36:57;;;;;;;14.55;4.87;;;;;;;-3.82;59.21;101818.79;1539310;93;21154;-94
2022/01/12 09:39:23;;;;;;;15.65;5.53;;;;;;;-3.91;58.43;101819.97;1595156;88;21180;-94
2022/01/12 09:41:51;;;;;;;15.28;5.35;;;;;;;-4.00;58.65;101820.78;1608452;88;20990;-94
2022/01/12 09:44:17;;;;;;;15.58;5.67;;;;;;;-4.16;59.62;101812.54;1608462;88;21169;-94
2022/01/12 09:46:44;;;;;;;15.58;5.65;;;;;;;-4.22;59.72;101815.70;1608459;89;21140;-95
2022/01/12 09:49:12;;;;;;;13.95;5.50;;;;;;;-4.32;59.75;101813.05;1588234;89;21228;-94
2022/01/12 09:51:38;;;;;;;15.78;5.97;;;;;;;-4.60;61.84;101812.76;1609152;88;21093;-95
2022/01/12 09:54:04;;;;;;;17.10;6.67;;;;;;;-4.61;62.54;101813.73;1608658;88;21057;-94
2022/01/12 09:56:31;;;;;;;16.70;5.45;;;;;;;-4.51;65.79;101818.20;1608723;88;21100;-94
2022/01/12 09:59:00;;;;;;;12.80;5.70;;;;;;;-4.41;66.13;101819.07;1608566;88;20995;-94
2022/01/12 10:01:34;;;;;;;12.40;5.47;;;;;;;-4.40;65.69;101816.33;1608877;88;21085;-93
2022/01/12 10:04:10;;;;;;;17.25;6.35;;;;;;;-4.36;67.23;101819.03;1500271;95;21646;-96
2022/01/12 10:06:40;;;;;;;14.75;5.28;;;;;;;-4.26;68.96;101819.09;1500176;95;21181;-93
2022/01/12 10:09:08;;;;;;;17.35;6.10;;;;;;;-4.18;70.13;101820.55;1492174;96;21109;-92
2022/01/12 10:11:34;;;;;;;15.72;6.12;;;;;;;-3.98;71.24;101810.10;1492185;96;21522;-93
2022/01/12 10:14:02;;;;;;;15.55;5.35;;;;;;;-3.99;68.98;101808.45;1492028;96;21117;-92
2022/01/12 10:16:29;;;;;;;19.10;6.20;;;;;;;-3.95;68.36;101804.56;1474168;96;21118;-93
2022/01/12 10:19:00;;;;;;;14.25;5.72;;;;;;;-4.08;66.41;101810.57;1519806;91;21165;-93
2022/01/12 10:21:30;;;;;;;17.80;5.55;;;;;;;-4.24;66.57;101805.30;1562286;91;21092;-93
2022/01/12 10:24:00;;;;;;;19.57;6.47;;;;;;;-4.28;66.54;101808.34;1562407;91;21081;-93
2022/01/12 10:26:47;;;;;;;14.68;5.78;;;;;;;-4.52;65.37;101800.77;1509657;95;21148;-95
2022/01/12 10:29:21;;;;;;;19.80;6.67;;;;;;;-4.66;70.22;101800.14;1509611;95;21177;-93
2022/01/12 10:31:54;;;;;;;13.85;5.20;;;;;;;-4.70;69.68;101811.89;1509738;95;21705;-94
2022/01/12 10:34:31;;;;;;;14.47;5.35;;;;;;;-4.85;68.35;101805.30;1463359;98;21180;-94
2022/01/12 10:36:59;;;;;;;12.80;5.35;;;;;;;-4.89;69.70;101792.05;1388060;102;21144;-95
2022/01/12 10:39:29;;;;;;;14.87;5.35;;;;;;;-5.05;69.28;101796.45;1374738;104;21551;-95
2022/01/12 10:42:02;;;;;;;14.38;5.20;;;;;;;-5.08;71.30;101799.34;1373137;104;21140;-95
2022/01/12 10:44:34;;;;;;;14.40;5.45;;;;;;;-5.00;72.93;101791.62;1373208;104;21141;-94
2022/01/12 10:47:18;;;;;;;16.52;5.55;;;;;;;-4.89;72.62;101788.92;1372611;103;21662;-92
2022/01/12 10:49:58;;;;;;;16.48;5.17;;;;;;;-4.72;74.95;101786.69;1376356;103;21211;-93
2022/01/12 10:52:34;;;;;;;17.57;5.78;;;;;;;-4.58;74.15;101780.59;1376220;104;21141;-93
2022/01/12 10:55:07;;;;;;;13.53;5.65;;;;;;;-4.44;73.31;101789.09;1323492;108;21222;-91
2022/01/12 10:57:40;;;;;;;19.73;5.92;;;;;;;-4.44;71.06;101788.63;1323509;108;21609;-95
2022/01/12 11:00:18;;;;;;;19.60;6.20;;;;;;;-4.64;67.66;101793.45;1335890;103;21089;-95
2022/01/12 11:02:52;;;;;;;16.48;5.55;;;;;;;-4.71;70.65;101789.16;1388358;102;21148;-94
2022/01/12 11:05:22;;;;;;;15.30;5.67;;;;;;;-4.61;71.80;101788.75;1392128;100;21122;-94
2022/01/12 11:07:48;;;;;;;14.03;5.35;;;;;;;-4.62;72.29;101789.73;1385131;103;22483;-93
2022/01/12 11:10:16;;;;;;;12.45;5.50;;;;;;;-4.65;69.02;101791.27;1406848;102;21099;-94
2022/01/12 11:12:42;;;;;;;16.37;5.97;;;;;;;-4.85;69.23;101785.09;1402493;101;21156;-94
2022/01/12 11:15:19;;;;;;;10.25;4.55;;;;;;;-4.82;71.64;101784.01;1428331;100;21095;-94
2022/01/12 11:17:48;;;;;;;12.23;4.70;;;;;;;-4.73;71.88;101785.86;1428180;98;21935;-93
2022/01/12 11:20:30;;;;;;;14.18;5.12;;;;;;;-4.62;71.93;101779.66;1428439;99;22023;-93
2022/01/12 11:23:04;;;;;;;13.13;4.83;;;;;;;-4.54;71.95;101784.28;1432673;98;21087;-94
2022/01/12 11:25:38;;;;;;;14.30;5.35;;;;;;;-4.54;70.80;101779.02;1447544;99;21107;-93
2022/01/12 11:28:23;;;;;;;18.50;6.03;;;;;;;-4.63;68.72;101790.67;1446367;99;21683;-91
2022/01/12 11:30:55;;;;;;;14.80;5.35;;;;;;;-4.77;68.35;101784.92;1446489;99;21675;-93
2022/01/12 11:33:32;;;;;;;12.40;4.97;;;;;;;-5.02;68.57;101783.88;1465629;94;21309;-93
2022/01/12 11:36:18;;;;;;;13.18;4.83;;;;;;;-5.07;68.83;101783.91;1506449;94;21089;-95
2022/01/12 11:38:50;;;;;;;15.45;4.92;;;;;;;-5.16;67.60;101789.45;1511598;94;21104;-93
2022/01/12 11:41:35;;;;;;;14.33;5.15;;;;;;;-5.23;68.31;101790.93;1511883;94;21100;-93
2022/01/12 11:44:12;;;;;;;14.00;4.65;;;;;;;-5.31;67.73;101793.35;1485563;95;21156;-93
2022/01/12 11:46:52;;;;;;;11.03;4.72;;;;;;;-5.30;69.64;101784.02;1522780;94;21134;-94
2022/01/12 11:49:35;;;;;;;15.98;5.22;;;;;;;-5.10;71.85;101784.17;1497905;95;21069;-93
2022/01/12 11:52:15;;;;;;;13.95;4.60;;;;;;;-4.93;71.39;101788.02;1501798;95;21329;-94
2022/01/12 11:54:45;;;;;;;17.87;6.85;;;;;;;-4.86;71.18;101786.53;1494189;96;21137;-95
2022/01/12 11:57:13;;;;;;;21.12;5.92;;;;;;;-4.85;70.21;101794.78;1518293;94;21140;-95
2022/01/12 12:00:00;;;;;;;15.58;5.55;;;;;;;-4.96;70.80;101796.16;1518713;94;21576;-95
2022/01/12 12:02:37;;;;;;;18.52;5.67;;;;;;;-4.97;76.03;101794.48;1547189;91;21066;-94
2022/01/12 12:05:13;;;;;;;13.20;5.12;;;;;;;-4.92;75.66;101802.81;1497147;96;21139;-95
2022/01/12 12:08:03;;;;;;;22.32;8.18;;;;;;;-5.03;75.53;101798.00;1509696;95;21075;-94
2022/01/12 12:10:34;;;;;;;18.75;6.33;;;;;;;-5.00;75.39;101806.56;1495344;95;21018;-93
2022/01/12 12:13:02;;;;;;;16.15;5.08;;;;;;;-5.10;74.62;101795.51;1509038;95;21202;-93
2022/01/12 12:15:29;;;;;;;13.48;5.08;;;;;;;-5.19;74.85;101799.39;1491144;95;21091;-91
2022/01/12 12:18:00;;;;;;;16.75;5.72;;;;;;;-5.31;75.19;101797.30;1490782;96;21184;-92
2022/01/12 12:20:26;;;;;;;18.73;5.70;;;;;;;-5.22;79.10;101799.64;1466601;97;21131;-94
2022/01/12 12:22:52;;;;;;;14.00;5.25;;;;;;;-5.16;78.57;101799.13;1459912;98;21144;-94
2022/01/12 12:25:23;;;;;;;17.55;4.97;;;;;;;-5.18;78.52;101809.75;1460676;98;21153;-93
2022/01/12 12:27:56;;;;;;;18.12;6.58;;;;;;;-5.18;80.36;101808.44;1439162;99;21104;-92
2022/01/12 12:30:25;;;;;;;16.15;6.17;;;;;;;-5.18;79.58;101808.44;1444571;99;21123;-93
2022/01/12 12:32:58;;;;;;;14.93;5.22;;;;;;;-5.26;78.16;101805.64;1479952;96;21094;-95
2022/01/12 12:35:28;;;;;;;17.00;5.80;;;;;;;-5.32;79.51;101814.86;1479425;97;21145;-94
2022/01/12 12:38:06;;;;;;;12.58;4.97;;;;;;;-5.45;77.88;101813.34;1483249;95;21791;-94
2022/01/12 12:40:42;;;;;;;13.85;5.12;;;;;;;-5.54;78.23;101814.44;1482911;95;21157;-95
2022/01/12 12:43:20;;;;;;;13.32;4.72;;;;;;;-5.59;79.74;101819.25;1485216;96;21185;-92
2022/01/12 12:45:54;;;;;;;10.60;4.78;;;;;;;-5.64;79.19;101820.09;1450195;95;21142;-94
2022/01/12 12:48:25;;;;;;;23.00;7.28;;;;;;;-5.68;81.36;101819.14;1449463;99;21176;-95
2022/01/12 12:51:12;;;;;;;18.07;6.85;;;;;;;-5.74;81.00;101819.15;1481240;96;21207;-94
2022/01/12 12:53:42;;;;;;;12.35;4.72;;;;;;;-5.84;82.96;101818.23;1437536;97;21578;-94
2022/01/12 12:56:16;;;;;;;18.12;4.95;;;;;;;-5.93;85.71;101814.58;1437840;99;21242;-92
2022/01/12 12:58:51;;;;;;;11.53;4.97;;;;;;;-5.99;84.53;101813.76;1437362;98;21266;-94
2022/01/12 13:01:19;;;;;;;12.53;4.80;;;;;;;-6.02;87.76;101811.38;1446545;99;21600;-93
2022/01/12 13:03:54;;;;;;;11.28;4.70;;;;;;;-6.03;87.11;101813.17;1429171;99;21175;-94
2022/01/12 13:06:30;;;;;;;11.78;4.55;;;;;;;-6.04;87.28;101815.42;1431511;100;21243;-94
2022/01/12 13:09:04;;;;;;;11.28;4.78;;;;;;;-6.07;86.04;101813.04;1431460;100;21711;-95
2022/01/12 13:11:36;;;;;;;15.45;4.97;;;;;;;-6.09;87.37;101814.11;1451941;98;21175;-96
2022/01/12 13:14:09;;;;;;;18.42;6.35;;;;;;;-6.09;87.64;101813.63;1452087;98;21231;-94
2022/01/12 13:16:51;;;;;;;16.32;5.55;;;;;;;-6.16;87.95;101821.64;1453684;98;21166;-95
2022/01/12 13:22:38;;;;;;;14.50;5.45;;;;;;;-6.20;91.70;101817.12;1451269;98;21265;-93